CheckWX is a tool to help pilots better visualize weather data.  It is not intended as a substitute for an official pre-flight weather briefing.

05:43:56 UTC

KBTL TAF
W K Kellogg Airport
Battle Creek, Michigan, USA
KBTL 132325Z 1400/1424 18011G20KT P6SM BKN100 FM140300 20006KT P6SM VCSH BKN035 FM141000 21006KT P6SM VCSH OVC030 FM141700 24007KT P6SM BKN025 FM141900 24007KT P6SM BKN035

Nov-14@
00:00 UTC

Nov-14 @ 00:00 UTC

Nov-14@
03:00 UTC

Nov-14 @ 03:00 UTC

KBTL 132325Z 1400/1424 18011G20KT P6SM BKN100

Expired

Wind
  • 180° at 11 KTS
  • {Gusting to 20 KTS
Cloud Levels
  • Broken at 10,000' AGL

Nov-14@
03:00 UTC

Nov-14 @ 03:00 UTC

Nov-14@
10:00 UTC

Nov-14 @ 10:00 UTC

FM140300 20006KT P6SM VCSH BKN035

From

From Standard forecast or significant change

Wind
  • 200° at 6 KTS
Cloud Levels
  • Broken at 3,500' AGL

Nov-14@
10:00 UTC

Nov-14 @ 10:00 UTC

Nov-14@
17:00 UTC

Nov-14 @ 17:00 UTC

FM141000 21006KT P6SM VCSH OVC030

From

From Standard forecast or significant change

Wind
  • 210° at 6 KTS
Cloud Levels
  • Overcast at 3,000' AGL

Nov-14@
17:00 UTC

Nov-14 @ 17:00 UTC

Nov-14@
19:00 UTC

Nov-14 @ 19:00 UTC

FM141700 24007KT P6SM BKN025

From

From Standard forecast or significant change

Wind
  • 240° at 7 KTS
Cloud Levels
  • Broken at 2,500' AGL

Nov-14@
19:00 UTC

Nov-14 @ 19:00 UTC

Nov-15@
00:00 UTC

Nov-15 @ 00:00 UTC

FM141900 24007KT P6SM BKN035

From

From Standard forecast or significant change

Wind
  • 240° at 7 KTS
Cloud Levels
  • Broken at 3,500' AGL